Jamison, Pennsylvania
Current Conditions -  °F | °C
As of 12:54 PM on Wednesday 28 Jan 2015 (Local Time) from KDYL Reporting Station
Clear Clear  
Wind Chill: 20°   Ceiling: Unl
Heat Index: 28°   Visibility: 10mi
Dew Point:   Wind: 8mph
Humidity: 43%   Direction: 320°NW
Pressure: 30.09"   Gusts: 26mph
Location:  40.27°N, 75.1°W
Report Text: KDYL 281754Z AUTO 32007G23KT 10SM CLR M02/M13 A3009 RMK AO2 SLP198 T10221133 11022 21100 58004
Loading
Personal Weather Stations






























Interactive Weather Map New forecast layout! Learn more

10-Day Weather Forecast

Advertisements
Track Severe Weather on mobile